Time;durP1;ratioP1;P1;durP2;ratioP2;P2;SDS_P1;SDS_P2;PMS_P1;PMS_P2;Temp;Humidity;BMP_temperature;BMP_pressure;BME280_temperature;BME280_humidity;BME280_pressure;Samples;Min_cycle;Max_cycle;Signal;HPM_P1;HPM_P2
2021/06/10 00:00:16;;;;;;;0.55;0.40;;;17.20;59.10;;;;;;5013737;28;20029;-74
2021/06/10 00:02:43;;;;;;;0.35;0.35;;;17.40;59.00;;;;;;5013723;28;20092;-75
2021/06/10 00:05:10;;;;;;;0.43;0.43;;;17.50;58.90;;;;;;5013639;28;20029;-74
2021/06/10 00:07:36;;;;;;;0.30;0.30;;;17.60;58.70;;;;;;4995908;28;20474;-74
2021/06/10 00:10:09;;;;;;;0.65;0.57;;;17.60;58.60;;;;;;5012963;28;20117;-73
2021/06/10 00:12:35;;;;;;;0.50;0.50;;;17.70;58.70;;;;;;5013604;28;20018;-73
2021/06/10 00:15:00;;;;;;;0.40;0.40;;;17.70;58.70;;;;;;5013592;28;20104;-74
2021/06/10 00:17:26;;;;;;;0.50;0.50;;;17.60;58.80;;;;;;5013727;28;20109;-74
2021/06/10 00:19:51;;;;;;;0.43;0.43;;;17.60;58.90;;;;;;4995778;28;20029;-74
2021/06/10 00:22:19;;;;;;;0.40;0.40;;;17.60;59.10;;;;;;5013323;28;20046;-73
2021/06/10 00:24:44;;;;;;;0.57;0.57;;;17.60;59.20;;;;;;5012954;28;20022;-74
2021/06/10 00:27:10;;;;;;;0.45;0.43;;;17.60;59.20;;;;;;5013067;28;20014;-75
2021/06/10 00:29:35;;;;;;;0.57;0.57;;;17.50;59.30;;;;;;5013291;28;20042;-73
2021/06/10 00:32:01;;;;;;;0.47;0.40;;;17.50;59.30;;;;;;4995703;28;20022;-73
2021/06/10 00:34:26;;;;;;;0.60;0.60;;;17.40;59.40;;;;;;5013182;28;20034;-73
2021/06/10 00:36:52;;;;;;;0.52;0.52;;;17.40;59.60;;;;;;5013132;28;20072;-75
2021/06/10 00:39:18;;;;;;;0.40;0.40;;;17.30;59.60;;;;;;5012817;28;20022;-74
2021/06/10 00:41:43;;;;;;;0.50;0.50;;;17.30;59.60;;;;;;5013317;28;20014;-75
2021/06/10 00:44:10;;;;;;;0.40;0.30;;;17.40;59.70;;;;;;5013214;28;20090;-75
2021/06/10 00:46:36;;;;;;;0.40;0.40;;;17.40;59.60;;;;;;5016471;28;20036;-74
2021/06/10 00:49:03;;;;;;;0.40;0.40;;;17.40;59.70;;;;;;4999085;28;20041;-74
2021/06/10 00:51:29;;;;;;;0.38;0.25;;;17.40;59.60;;;;;;5017085;28;20360;-75
2021/06/10 00:53:56;;;;;;;0.50;0.50;;;17.40;59.60;;;;;;5016564;28;20029;-74
2021/06/10 00:56:22;;;;;;;0.50;0.50;;;17.30;59.60;;;;;;5016977;28;20022;-76
2021/06/10 00:58:48;;;;;;;0.55;0.50;;;17.30;59.60;;;;;;5016730;28;20114;-73
2021/06/10 01:01:13;;;;;;;1.73;0.50;;;17.30;59.60;;;;;;5016866;28;20029;-74
2021/06/10 01:03:39;;;;;;;0.50;0.50;;;17.30;59.60;;;;;;5016766;28;20088;-74
2021/06/10 01:06:21;;;;;;;0.40;0.40;;;17.30;59.60;;;;;;5016696;28;20023;-74
2021/06/10 01:08:59;;;;;;;0.40;0.40;;;17.30;59.50;;;;;;5016165;28;20430;-73
2021/06/10 01:12:03;;;;;;;0.38;0.38;;;17.30;59.50;;;;;;5016774;28;20028;-74
2021/06/10 01:14:31;;;;;;;0.52;0.52;;;17.30;59.50;;;;;;5016587;28;20026;-75
2021/06/10 01:17:00;;;;;;;0.30;0.30;;;17.30;59.60;;;;;;5016562;28;20539;-75
2021/06/10 01:19:59;;;;;;;1.08;0.47;;;17.30;59.60;;;;;;4999109;28;20069;-75
2021/06/10 01:22:36;;;;;;;0.65;0.57;;;17.30;59.60;;;;;;5015984;28;20475;-76
2021/06/10 01:25:06;;;;;;;0.40;0.40;;;17.20;59.60;;;;;;5016568;28;20486;-74
2021/06/10 01:27:38;;;;;;;0.65;0.65;;;17.20;59.70;;;;;;5016255;28;20084;-74
2021/06/10 01:30:10;;;;;;;0.85;0.85;;;17.10;59.70;;;;;;5016198;28;20034;-75
2021/06/10 01:32:41;;;;;;;0.57;0.57;;;17.10;59.90;;;;;;5016103;28;20030;-74
2021/06/10 01:35:07;;;;;;;0.57;0.57;;;17.00;59.80;;;;;;5016328;28;20036;-74
2021/06/10 01:37:36;;;;;;;0.43;0.43;;;17.00;59.90;;;;;;4998126;28;20104;-75
2021/06/10 01:40:05;;;;;;;0.50;0.50;;;16.90;59.90;;;;;;5016062;28;20463;-74
2021/06/10 01:42:31;;;;;;;0.28;0.20;;;16.90;60.00;;;;;;5016162;28;20064;-75
2021/06/10 01:44:58;;;;;;;0.52;0.52;;;16.80;60.00;;;;;;5015978;28;20062;-74
2021/06/10 01:47:25;;;;;;;0.25;0.25;;;16.80;60.10;;;;;;4998411;28;20032;-74
2021/06/10 01:49:51;;;;;;;0.25;0.25;;;16.80;60.10;;;;;;5015842;28;20442;-74
2021/06/10 01:52:20;;;;;;;0.40;0.40;;;16.80;60.10;;;;;;5015450;28;20529;-74
2021/06/10 01:54:46;;;;;;;0.50;0.40;;;16.70;60.10;;;;;;5015868;28;20464;-73
2021/06/10 01:57:14;;;;;;;0.65;0.50;;;16.70;60.10;;;;;;5015201;28;20101;-75
2021/06/10 01:59:40;;;;;;;0.50;0.50;;;16.70;60.10;;;;;;5015828;28;20030;-74
2021/06/10 02:02:06;;;;;;;0.40;0.40;;;16.60;60.20;;;;;;5015655;28;20485;-74
2021/06/10 02:04:33;;;;;;;0.38;0.32;;;16.60;60.40;;;;;;5015642;28;20106;-74
2021/06/10 02:07:00;;;;;;;0.30;0.30;;;16.50;60.40;;;;;;4997676;28;20079;-74
2021/06/10 02:09:27;;;;;;;0.43;0.43;;;16.50;60.50;;;;;;5015393;28;20042;-74
2021/06/10 02:11:54;;;;;;;0.80;0.80;;;16.40;60.60;;;;;;5015521;28;20018;-74
2021/06/10 02:14:20;;;;;;;0.82;0.63;;;16.30;60.70;;;;;;5015458;28;20022;-74
2021/06/10 02:16:47;;;;;;;0.40;0.40;;;16.30;60.80;;;;;;5015416;28;20026;-75
2021/06/10 02:19:15;;;;;;;0.47;0.47;;;16.30;60.90;;;;;;5015305;28;20105;-76
2021/06/10 02:21:43;;;;;;;0.63;0.63;;;16.20;60.90;;;;;;5015045;28;20433;-75
2021/06/10 02:24:14;;;;;;;0.55;0.55;;;16.20;61.00;;;;;;5015234;28;20026;-74
2021/06/10 02:26:41;;;;;;;0.40;0.40;;;16.20;61.20;;;;;;5015338;28;20026;-74
2021/06/10 02:29:06;;;;;;;0.50;0.50;;;16.10;61.20;;;;;;4997417;28;20050;-75
2021/06/10 02:31:32;;;;;;;0.47;0.47;;;16.10;61.30;;;;;;5014908;28;20095;-74
2021/06/10 02:33:58;;;;;;;0.43;0.43;;;16.10;61.40;;;;;;5015198;28;20060;-74
2021/06/10 02:36:24;;;;;;;0.95;0.40;;;16.10;61.40;;;;;;5014616;28;20526;-74
2021/06/10 02:38:54;;;;;;;0.50;0.50;;;16.00;62.10;;;;;;5014979;28;20018;-74
2021/06/10 02:41:25;;;;;;;0.40;0.40;;;16.00;61.50;;;;;;5015208;28;20025;-74
2021/06/10 02:43:52;;;;;;;0.43;0.43;;;16.00;61.60;;;;;;5015103;28;20018;-75
2021/06/10 02:46:18;;;;;;;0.50;0.50;;;16.00;61.70;;;;;;5014744;28;20097;-73
2021/06/10 02:48:46;;;;;;;0.35;0.35;;;16.00;61.80;;;;;;5015033;28;20180;-74
2021/06/10 02:51:12;;;;;;;0.50;0.50;;;16.00;61.80;;;;;;5014251;28;20068;-73
2021/06/10 02:53:40;;;;;;;0.63;0.63;;;15.90;61.90;;;;;;5014739;28;20053;-74
2021/06/10 02:56:08;;;;;;;0.40;0.40;;;15.90;62.00;;;;;;5014569;28;20014;-75
2021/06/10 02:58:37;;;;;;;0.45;0.45;;;15.80;62.10;;;;;;5014684;28;20021;-75
2021/06/10 03:01:04;;;;;;;0.60;0.60;;;15.80;62.20;;;;;;4997102;28;20028;-74
2021/06/10 03:03:32;;;;;;;0.85;0.60;;;15.80;62.40;;;;;;5014106;28;20304;-74
2021/06/10 03:05:58;;;;;;;0.50;0.50;;;15.70;62.50;;;;;;5014454;28;20026;-75
2021/06/10 03:08:25;;;;;;;0.50;0.50;;;15.70;62.60;;;;;;5013559;28;20080;-74
2021/06/10 03:10:51;;;;;;;0.55;0.55;;;15.70;62.60;;;;;;5014418;28;20029;-74
2021/06/10 03:13:19;;;;;;;0.40;0.40;;;15.70;62.70;;;;;;5014405;28;20080;-75
2021/06/10 03:15:45;;;;;;;0.52;0.52;;;15.70;62.70;;;;;;5014360;28;20026;-73
2021/06/10 03:18:12;;;;;;;0.35;0.35;;;15.70;62.90;;;;;;5013869;28;20356;-73
2021/06/10 03:20:39;;;;;;;0.55;0.55;;;15.70;63.00;;;;;;5014288;28;20017;-75
2021/06/10 03:23:04;;;;;;;0.40;0.40;;;15.60;63.00;;;;;;5014150;28;20109;-74
2021/06/10 03:25:30;;;;;;;0.45;0.45;;;15.60;63.00;;;;;;5014287;28;20072;-73
2021/06/10 03:27:56;;;;;;;0.35;0.35;;;15.60;63.10;;;;;;5013891;28;20128;-75
2021/06/10 03:30:22;;;;;;;0.50;0.50;;;15.60;63.20;;;;;;5014121;28;20158;-75
2021/06/10 03:32:49;;;;;;;0.80;0.80;;;15.60;63.30;;;;;;5013585;28;20431;-74
2021/06/10 03:35:16;;;;;;;0.70;0.60;;;15.60;63.30;;;;;;5013943;28;20049;-74
2021/06/10 03:37:43;;;;;;;0.70;0.50;;;15.60;63.30;;;;;;5013818;28;20022;-74
2021/06/10 03:40:10;;;;;;;0.63;0.63;;;15.60;63.40;;;;;;4996406;28;20061;-74
2021/06/10 03:42:37;;;;;;;0.63;0.63;;;15.60;63.50;;;;;;5013832;28;20026;-74
2021/06/10 03:45:04;;;;;;;0.70;0.70;;;15.60;63.40;;;;;;5013868;28;20022;-74
2021/06/10 03:47:30;;;;;;;0.70;0.70;;;15.60;63.50;;;;;;5013236;28;20169;-76
2021/06/10 03:49:56;;;;;;;0.60;0.60;;;15.70;63.40;;;;;;4996203;28;20044;-74
2021/06/10 03:52:26;;;;;;;0.70;0.70;;;15.70;63.40;;;;;;5013791;28;20018;-73
2021/06/10 03:54:52;;;;;;;1.10;0.80;;;15.70;63.40;;;;;;5013959;28;20037;-75
2021/06/10 03:57:17;;;;;;;1.00;0.95;;;15.70;63.40;;;;;;5013586;28;20479;-74
2021/06/10 03:59:43;;;;;;;0.68;0.57;;;15.80;63.50;;;;;;5013769;28;20453;-74
2021/06/10 04:02:08;;;;;;;1.00;0.95;;;15.80;63.60;;;;;;5013110;28;20030;-73
2021/06/10 04:04:34;;;;;;;0.90;0.90;;;15.80;63.70;;;;;;4996017;28;20018;-76
2021/06/10 04:06:59;;;;;;;0.77;0.77;;;15.80;63.70;;;;;;5013475;28;20053;-74
2021/06/10 04:09:25;;;;;;;1.10;1.00;;;15.90;63.60;;;;;;5013392;28;20076;-75
2021/06/10 04:11:51;;;;;;;0.93;0.93;;;15.90;63.60;;;;;;4995823;28;20113;-74
2021/06/10 04:14:17;;;;;;;0.98;0.98;;;16.00;63.60;;;;;;5013530;28;20131;-74
2021/06/10 04:16:42;;;;;;;1.20;1.00;;;16.00;63.60;;;;;;5012863;28;20018;-74
2021/06/10 04:19:09;;;;;;;1.08;0.95;;;16.00;63.60;;;;;;5013108;28;20029;-74
2021/06/10 04:21:34;;;;;;;1.13;1.02;;;16.00;63.60;;;;;;5013361;28;20086;-75
2021/06/10 04:24:01;;;;;;;1.60;1.20;;;16.10;63.60;;;;;;5013338;28;20092;-73
2021/06/10 04:26:27;;;;;;;1.83;1.15;;;16.10;63.70;;;;;;5013266;28;20022;-74
2021/06/10 04:28:53;;;;;;;1.10;1.05;;;16.10;63.70;;;;;;5013033;28;20072;-74
2021/06/10 04:31:20;;;;;;;2.10;1.10;;;16.10;63.80;;;;;;5012936;28;20463;-74
2021/06/10 04:33:46;;;;;;;1.35;1.15;;;16.20;63.90;;;;;;4995433;28;20029;-75
2021/06/10 04:36:12;;;;;;;1.40;1.30;;;16.20;63.80;;;;;;5013156;28;20033;-75
2021/06/10 04:38:38;;;;;;;1.00;1.00;;;16.20;63.80;;;;;;5013163;28;20032;-75
2021/06/10 04:41:04;;;;;;;1.65;1.45;;;16.30;63.90;;;;;;5013232;28;20105;-74
2021/06/10 04:43:30;;;;;;;1.00;0.95;;;16.30;64.00;;;;;;5013066;28;20022;-74
2021/06/10 04:45:58;;;;;;;1.23;1.10;;;16.30;64.00;;;;;;5012740;28;20049;-74
2021/06/10 04:48:25;;;;;;;1.67;1.48;;;16.30;64.10;;;;;;5012995;28;20035;-74
2021/06/10 04:50:50;;;;;;;1.42;1.33;;;16.30;64.20;;;;;;4995617;28;20033;-74
2021/06/10 04:53:16;;;;;;;1.38;1.23;;;16.30;64.30;;;;;;5013218;28;20093;-75
2021/06/10 04:55:44;;;;;;;1.10;1.00;;;16.20;64.40;;;;;;5012872;28;20110;-75
2021/06/10 04:58:09;;;;;;;1.40;1.30;;;16.20;64.50;;;;;;5012906;28;20054;-74
2021/06/10 05:00:38;;;;;;;1.23;1.13;;;16.20;64.50;;;;;;5012523;28;20064;-75
2021/06/10 05:03:07;;;;;;;1.00;0.95;;;16.20;64.50;;;;;;5012987;28;20018;-75
2021/06/10 05:05:33;;;;;;;1.25;1.13;;;16.20;64.50;;;;;;5012905;28;20026;-73
2021/06/10 05:07:59;;;;;;;1.40;1.15;;;16.30;64.60;;;;;;5012807;28;20014;-75
2021/06/10 05:10:25;;;;;;;1.55;1.38;;;16.30;64.60;;;;;;5012929;28;20364;-75
2021/06/10 05:12:50;;;;;;;0.75;0.75;;;16.40;64.60;;;;;;5012879;28;20026;-75
2021/06/10 05:15:16;;;;;;;1.00;1.00;;;16.50;64.60;;;;;;5012514;28;20391;-75
2021/06/10 05:17:42;;;;;;;1.30;1.20;;;16.50;64.50;;;;;;5012963;28;20029;-75
2021/06/10 05:20:08;;;;;;;1.40;1.27;;;16.50;64.50;;;;;;5012616;28;20029;-75
2021/06/10 05:22:33;;;;;;;0.80;0.80;;;16.60;64.50;;;;;;5012860;28;20423;-73
2021/06/10 05:24:59;;;;;;;1.23;1.10;;;16.70;64.50;;;;;;5012784;28;20155;-74
2021/06/10 05:27:25;;;;;;;1.50;1.40;;;16.70;64.40;;;;;;5012521;28;20050;-74
2021/06/10 05:29:50;;;;;;;1.85;1.40;;;16.80;64.40;;;;;;5012170;28;20499;-74
2021/06/10 05:32:16;;;;;;;1.95;1.40;;;16.90;64.40;;;;;;5015160;28;20101;-74
2021/06/10 05:34:44;;;;;;;1.67;1.40;;;16.90;64.40;;;;;;5016265;28;20111;-75
2021/06/10 05:37:10;;;;;;;1.35;1.23;;;17.00;64.40;;;;;;5016192;28;20022;-75
2021/06/10 05:39:36;;;;;;;1.83;1.45;;;17.10;64.30;;;;;;5016267;28;20105;-75
2021/06/10 05:42:01;;;;;;;1.23;1.13;;;17.10;64.30;;;;;;5016010;28;20018;-76
2021/06/10 05:44:27;;;;;;;1.00;1.00;;;17.20;64.30;;;;;;5015784;28;20034;-74
2021/06/10 05:46:52;;;;;;;1.20;1.10;;;17.30;64.40;;;;;;5016067;28;20092;-75
2021/06/10 05:49:18;;;;;;;1.38;1.27;;;17.30;64.40;;;;;;5015817;28;20049;-74
2021/06/10 05:51:44;;;;;;;1.02;1.02;;;17.40;64.50;;;;;;5015993;28;20022;-74
2021/06/10 05:54:10;;;;;;;1.58;1.40;;;17.40;64.50;;;;;;5015724;28;20084;-74
2021/06/10 05:56:36;;;;;;;1.40;1.00;;;17.50;64.40;;;;;;5015774;28;20018;-76
2021/06/10 05:59:02;;;;;;;1.38;1.15;;;17.50;64.30;;;;;;4997827;28;20034;-74
2021/06/10 06:01:27;;;;;;;1.50;1.13;;;17.70;64.40;;;;;;5015722;28;20018;-74
2021/06/10 06:03:53;;;;;;;1.45;1.35;;;17.80;64.40;;;;;;5015802;28;20375;-74
2021/06/10 06:06:19;;;;;;;1.55;1.10;;;17.90;64.30;;;;;;5015759;28;20033;-73
2021/06/10 06:08:46;;;;;;;1.50;1.20;;;17.90;64.30;;;;;;4997862;28;20040;-74
2021/06/10 06:11:16;;;;;;;1.27;1.17;;;18.00;64.20;;;;;;5015677;28;20018;-75
2021/06/10 06:14:06;;;;;;;1.50;1.40;;;18.10;64.20;;;;;;5015090;28;20033;-75
2021/06/10 06:16:32;;;;;;;1.70;1.50;;;18.20;64.20;;;;;;5015516;28;20483;-74
2021/06/10 06:18:58;;;;;;;1.27;1.23;;;18.30;64.20;;;;;;5015383;28;20045;-75
2021/06/10 06:21:24;;;;;;;2.03;1.42;;;18.40;64.30;;;;;;5015311;28;20029;-75
2021/06/10 06:23:49;;;;;;;2.20;1.30;;;18.50;64.30;;;;;;5015213;28;20030;-74
2021/06/10 06:26:15;;;;;;;1.70;1.40;;;18.60;64.30;;;;;;5015376;28;20022;-76
2021/06/10 06:28:42;;;;;;;1.75;1.40;;;18.60;64.20;;;;;;5014416;28;20041;-77
2021/06/10 06:31:09;;;;;;;2.25;1.60;;;18.70;64.30;;;;;;5015197;28;20022;-73
2021/06/10 06:33:35;;;;;;;1.50;1.30;;;18.80;64.30;;;;;;5015061;28;20021;-74
2021/06/10 06:36:00;;;;;;;2.33;2.13;;;18.90;64.30;;;;;;5015114;28;20114;-74
2021/06/10 06:38:26;;;;;;;1.88;1.70;;;19.00;64.30;;;;;;5014980;28;20033;-72
2021/06/10 06:40:52;;;;;;;1.52;1.35;;;19.00;64.10;;;;;;4996773;28;20025;-74
2021/06/10 06:43:17;;;;;;;1.83;1.60;;;19.10;64.10;;;;;;5014835;28;20030;-74
2021/06/10 06:45:43;;;;;;;1.52;1.38;;;19.20;64.20;;;;;;5015064;28;20026;-73
2021/06/10 06:48:09;;;;;;;1.83;1.65;;;19.30;64.20;;;;;;5014562;28;20022;-72
2021/06/10 06:50:35;;;;;;;2.15;1.70;;;19.30;64.30;;;;;;5014678;28;20041;-72
2021/06/10 06:53:03;;;;;;;2.05;1.50;;;19.40;64.30;;;;;;5014536;28;20018;-74
2021/06/10 06:55:29;;;;;;;1.60;1.50;;;19.40;64.30;;;;;;5014192;28;20492;-73
2021/06/10 06:57:56;;;;;;;1.70;1.60;;;19.50;64.20;;;;;;5014589;28;20044;-73
2021/06/10 07:00:22;;;;;;;2.42;2.03;;;19.70;64.10;;;;;;5014526;28;20032;-72
2021/06/10 07:02:49;;;;;;;1.20;1.10;;;19.80;64.00;;;;;;5014556;28;20030;-73
2021/06/10 07:05:15;;;;;;;2.10;1.55;;;19.90;64.00;;;;;;4996971;28;20022;-72
2021/06/10 07:07:40;;;;;;;2.53;1.90;;;19.90;63.90;;;;;;5014436;28;20658;-72
2021/06/10 07:10:06;;;;;;;2.42;2.05;;;19.90;64.10;;;;;;5013758;28;20040;-72
2021/06/10 07:12:32;;;;;;;1.67;1.52;;;19.90;64.10;;;;;;5014304;28;20022;-73
2021/06/10 07:14:58;;;;;;;1.33;1.23;;;20.00;64.20;;;;;;5014284;28;20520;-72
2021/06/10 07:17:24;;;;;;;1.63;1.52;;;20.00;64.20;;;;;;5014334;28;20101;-72
2021/06/10 07:19:52;;;;;;;1.42;1.30;;;20.10;64.20;;;;;;5014304;28;20034;-72
2021/06/10 07:22:18;;;;;;;2.03;1.52;;;20.20;64.20;;;;;;5014164;28;20026;-72
2021/06/10 07:24:46;;;;;;;1.55;1.35;;;20.30;64.10;;;;;;5013552;28;20471;-73
2021/06/10 07:27:16;;;;;;;1.58;1.48;;;20.30;64.00;;;;;;5014048;28;20022;-73
2021/06/10 07:29:43;;;;;;;;;;;20.40;63.90;;;;;;5014503;28;20470;-72
2021/06/10 07:32:09;;;;;;;1.50;1.40;;;20.40;63.70;;;;;;5013990;28;19932;-71
2021/06/10 07:34:37;;;;;;;1.83;1.42;;;20.50;63.60;;;;;;5013938;28;20100;-73
2021/06/10 07:37:03;;;;;;;1.73;1.63;;;20.70;63.40;;;;;;5014003;28;20033;-72
2021/06/10 07:39:29;;;;;;;1.23;1.13;;;20.80;63.20;;;;;;5013542;28;20014;-73
2021/06/10 07:41:55;;;;;;;2.90;1.90;;;20.80;63.10;;;;;;5013778;28;20153;-73
2021/06/10 07:44:21;;;;;;;1.80;1.55;;;21.00;62.80;;;;;;5013859;28;20010;-73
2021/06/10 07:46:46;;;;;;;1.42;1.33;;;21.00;62.30;;;;;;4996244;28;20033;-72
2021/06/10 07:49:12;;;;;;;1.35;1.10;;;21.10;62.20;;;;;;5013611;28;20044;-72
2021/06/10 07:51:37;;;;;;;1.10;1.00;;;21.20;62.10;;;;;;5013664;28;20097;-74
2021/06/10 07:54:03;;;;;;;2.92;1.00;;;21.20;61.60;;;;;;4995051;28;20132;-73
2021/06/10 07:56:29;;;;;;;1.67;1.23;;;21.30;61.30;;;;;;5013779;28;20045;-74
2021/06/10 07:58:55;;;;;;;0.75;0.73;;;21.30;61.10;;;;;;5013602;28;20095;-72
2021/06/10 08:01:20;;;;;;;1.50;1.10;;;21.40;61.10;;;;;;5013499;28;20030;-73
2021/06/10 08:03:46;;;;;;;1.08;1.00;;;21.40;61.20;;;;;;5013501;28;20430;-74
2021/06/10 08:06:13;;;;;;;0.80;0.80;;;21.40;61.00;;;;;;5013523;28;20014;-73
2021/06/10 08:08:40;;;;;;;0.70;0.70;;;21.50;60.90;;;;;;5012928;28;20457;-73
2021/06/10 08:11:07;;;;;;;0.70;0.70;;;21.60;60.80;;;;;;5013556;28;20108;-73
2021/06/10 08:13:34;;;;;;;0.82;0.82;;;21.70;60.60;;;;;;5013289;28;20092;-72
2021/06/10 08:15:59;;;;;;;0.65;0.65;;;21.70;60.40;;;;;;5013408;28;20374;-72
2021/06/10 08:18:27;;;;;;;0.90;0.90;;;21.80;60.20;;;;;;5013403;28;20030;-73
2021/06/10 08:20:53;;;;;;;0.63;0.60;;;21.90;60.10;;;;;;4995745;28;20069;-73
2021/06/10 08:23:18;;;;;;;0.80;0.80;;;22.00;60.00;;;;;;5012902;28;20030;-72
2021/06/10 08:25:44;;;;;;;1.52;0.98;;;22.10;59.90;;;;;;5013143;28;20022;-74
2021/06/10 08:28:12;;;;;;;0.95;0.95;;;22.20;59.80;;;;;;5013127;28;20050;-73
2021/06/10 08:30:37;;;;;;;1.42;1.15;;;22.30;59.60;;;;;;5013247;28;20084;-73
2021/06/10 08:33:04;;;;;;;1.58;1.08;;;22.40;59.50;;;;;;5013113;28;20030;-72
2021/06/10 08:35:29;;;;;;;1.60;1.50;;;22.40;59.60;;;;;;5013256;28;20025;-72
2021/06/10 08:37:56;;;;;;;1.33;1.23;;;22.40;59.60;;;;;;5012648;28;20033;-73
2021/06/10 08:40:22;;;;;;;1.83;1.48;;;22.40;59.50;;;;;;5013222;28;20014;-73
2021/06/10 08:42:48;;;;;;;1.33;1.23;;;22.50;59.60;;;;;;5013243;28;20034;-72
2021/06/10 08:45:16;;;;;;;1.90;1.65;;;22.50;59.50;;;;;;5013187;28;20454;-73
2021/06/10 08:47:44;;;;;;;1.35;1.25;;;22.60;59.50;;;;;;5013152;28;20108;-74
2021/06/10 08:50:13;;;;;;;1.83;1.65;;;22.70;59.30;;;;;;5012864;28;20038;-74
2021/06/10 08:52:40;;;;;;;1.30;1.20;;;22.70;59.10;;;;;;5012525;28;20394;-72
2021/06/10 08:55:08;;;;;;;1.48;1.30;;;22.80;59.20;;;;;;5012931;28;20026;-72
2021/06/10 08:57:35;;;;;;;0.90;0.90;;;22.90;59.00;;;;;;5013038;28;20026;-72
2021/06/10 09:00:00;;;;;;;0.98;0.98;;;23.10;59.00;;;;;;5012857;28;20054;-73
2021/06/10 09:02:26;;;;;;;0.90;0.90;;;23.20;58.90;;;;;;5012997;28;20061;-73
2021/06/10 09:04:52;;;;;;;1.10;1.00;;;23.30;58.60;;;;;;4995560;28;20543;-74
2021/06/10 09:07:36;;;;;;;2.42;1.30;;;23.40;58.70;;;;;;5015084;28;20032;-73
2021/06/10 09:10:04;;;;;;;1.00;0.95;;;23.40;58.50;;;;;;5016710;28;20029;-73
2021/06/10 09:12:56;;;;;;;1.35;1.25;;;23.40;58.50;;;;;;5016573;28;20024;-73
2021/06/10 09:15:25;;;;;;;1.20;1.10;;;23.50;58.30;;;;;;5016176;28;20041;-72
2021/06/10 09:17:51;;;;;;;1.55;1.17;;;23.50;58.40;;;;;;5016379;28;20471;-73
2021/06/10 09:20:23;;;;;;;1.02;0.90;;;23.60;58.40;;;;;;5016547;28;20502;-73
2021/06/10 09:22:51;;;;;;;0.82;0.82;;;23.70;58.30;;;;;;4998740;28;20048;-73
2021/06/10 09:25:20;;;;;;;1.17;1.08;;;23.80;58.10;;;;;;5016330;28;20115;-74
2021/06/10 09:27:55;;;;;;;1.38;0.90;;;23.80;58.10;;;;;;5016355;28;20042;-73
2021/06/10 09:30:36;;;;;;;1.45;1.15;;;23.80;58.20;;;;;;5016131;28;20121;-74
2021/06/10 09:33:05;;;;;;;1.00;1.00;;;23.80;58.20;;;;;;5016338;28;20084;-73
2021/06/10 09:35:33;;;;;;;1.13;0.80;;;23.80;58.20;;;;;;5015719;28;20029;-73
2021/06/10 09:38:02;;;;;;;1.20;1.10;;;23.90;58.10;;;;;;5016190;28;20014;-73
2021/06/10 09:40:29;;;;;;;1.15;1.05;;;24.00;58.00;;;;;;5016307;28;20478;-73
2021/06/10 09:42:55;;;;;;;0.90;0.90;;;24.10;57.90;;;;;;5016006;28;20014;-73
2021/06/10 09:45:24;;;;;;;1.13;1.02;;;24.20;57.80;;;;;;5015803;28;20117;-74
2021/06/10 09:47:53;;;;;;;1.73;1.13;;;24.30;57.70;;;;;;5016021;28;20100;-73
2021/06/10 09:50:24;;;;;;;1.48;1.38;;;24.20;57.70;;;;;;5015427;28;20061;-74
2021/06/10 09:53:13;;;;;;;1.20;1.10;;;24.30;57.80;;;;;;5016057;28;20022;-73
2021/06/10 09:56:02;;;;;;;1.33;1.23;;;24.30;57.70;;;;;;5016000;28;20038;-73
2021/06/10 09:58:34;;;;;;;1.20;1.10;;;24.40;57.70;;;;;;5015281;28;20029;-75
2021/06/10 10:01:05;;;;;;;1.60;1.00;;;24.40;57.70;;;;;;5015767;28;20053;-74
2021/06/10 10:03:40;;;;;;;1.65;1.35;;;24.30;57.70;;;;;;5015794;28;20026;-73
2021/06/10 10:06:21;;;;;;;0.90;0.90;;;24.40;57.70;;;;;;5014987;28;20029;-74
2021/06/10 10:08:48;;;;;;;1.42;1.20;;;24.50;57.70;;;;;;5015560;28;20038;-73
2021/06/10 10:11:15;;;;;;;1.20;1.10;;;24.60;57.50;;;;;;4997747;28;20076;-74
2021/06/10 10:13:41;;;;;;;1.10;1.00;;;24.60;57.40;;;;;;5015615;28;20037;-73
2021/06/10 10:16:07;;;;;;;2.30;1.80;;;24.70;57.40;;;;;;5015512;28;20014;-73
2021/06/10 10:18:33;;;;;;;1.17;1.13;;;24.80;57.40;;;;;;4996936;28;20072;-74
2021/06/10 10:21:03;;;;;;;1.38;1.25;;;24.80;57.40;;;;;;5015236;28;20041;-73
2021/06/10 10:23:34;;;;;;;1.30;1.20;;;24.80;57.40;;;;;;5015158;28;20076;-73
2021/06/10 10:26:01;;;;;;;1.55;1.45;;;24.90;58.00;;;;;;5015262;28;20088;-73
2021/06/10 10:28:29;;;;;;;1.15;1.08;;;24.90;57.30;;;;;;4997202;28;20100;-73
2021/06/10 10:30:56;;;;;;;0.90;0.90;;;24.90;57.20;;;;;;5015185;28;20026;-72
2021/06/10 10:33:24;;;;;;;1.38;1.17;;;24.90;57.20;;;;;;5014660;28;20118;-72
2021/06/10 10:35:57;;;;;;;1.00;1.00;;;25.00;57.10;;;;;;5014947;28;20018;-72
2021/06/10 10:38:34;;;;;;;1.05;0.88;;;25.00;57.20;;;;;;5014964;28;20026;-73
2021/06/10 10:41:04;;;;;;;1.67;1.30;;;25.10;56.90;;;;;;5015065;28;20029;-73
2021/06/10 10:43:31;;;;;;;0.70;0.70;;;25.10;56.90;;;;;;5014884;28;20018;-72
2021/06/10 10:46:06;;;;;;;1.58;0.90;;;25.10;56.90;;;;;;5014948;28;20030;-73
2021/06/10 10:48:34;;;;;;;0.80;0.80;;;25.10;57.00;;;;;;5014137;28;20106;-72
2021/06/10 10:51:00;;;;;;;0.60;0.60;;;25.20;56.80;;;;;;5014814;28;20033;-73
2021/06/10 10:53:27;;;;;;;0.65;0.65;;;25.30;56.70;;;;;;5014611;28;20459;-72
2021/06/10 10:56:07;;;;;;;0.75;0.75;;;25.40;56.60;;;;;;4997150;28;20026;-72
2021/06/10 10:58:33;;;;;;;0.47;0.47;;;25.40;56.50;;;;;;5014730;28;20471;-72
2021/06/10 11:01:00;;;;;;;0.50;0.50;;;25.30;56.40;;;;;;5014703;28;20017;-72
2021/06/10 11:03:43;;;;;;;0.68;0.68;;;25.40;56.50;;;;;;5014069;28;20026;-72
2021/06/10 11:06:20;;;;;;;0.50;0.50;;;25.50;56.40;;;;;;5014603;28;20417;-72
2021/06/10 11:09:12;;;;;;;0.50;0.50;;;25.50;56.20;;;;;;5014584;28;20478;-73
2021/06/10 11:11:55;;;;;;;0.50;0.50;;;25.60;56.10;;;;;;5014630;28;20060;-73
2021/06/10 11:14:53;;;;;;;0.32;0.32;;;25.80;55.90;;;;;;5014377;28;20102;-72
2021/06/10 11:17:29;;;;;;;0.47;0.47;;;26.00;55.90;;;;;;5013816;28;20026;-74
2021/06/10 11:19:56;;;;;;;0.60;0.60;;;26.30;55.60;;;;;;4996659;28;20101;-74
2021/06/10 11:22:36;;;;;;;0.80;0.80;;;27.00;54.80;;;;;;4996600;28;20032;-73
2021/06/10 11:25:25;;;;;;;0.57;0.57;;;27.90;53.70;;;;;;5014469;28;20101;-73
2021/06/10 11:27:51;;;;;;;0.50;0.50;;;28.70;52.60;;;;;;4953184;28;20047;-73
2021/06/10 11:30:28;;;;;;;0.73;0.73;;;29.30;52.20;;;;;;4952836;29;20110;-73
2021/06/10 11:33:07;;;;;;;0.50;0.50;;;29.90;51.50;;;;;;4953286;29;20071;-73
2021/06/10 11:35:49;;;;;;;;;;;30.30;51.10;;;;;;4954218;29;20023;-72
2021/06/10 11:38:24;;;;;;;0.50;0.50;;;30.60;51.10;;;;;;4953445;29;19971;-72
2021/06/10 11:40:59;;;;;;;1.15;0.80;;;31.10;50.70;;;;;;4953577;29;20101;-73
2021/06/10 11:43:26;;;;;;;0.40;0.40;;;31.20;50.40;;;;;;4953550;29;20023;-72
2021/06/10 11:45:57;;;;;;;0.68;0.65;;;31.30;50.20;;;;;;4952942;29;20110;-72
2021/06/10 11:48:41;;;;;;;0.45;0.45;;;31.50;50.10;;;;;;4953509;29;20035;-73
2021/06/10 11:51:20;;;;;;;0.77;0.77;;;31.80;49.90;;;;;;4953499;29;20098;-72
2021/06/10 11:53:46;;;;;;;0.40;0.40;;;31.90;49.90;;;;;;4953162;29;20038;-72
2021/06/10 11:56:12;;;;;;;0.75;0.75;;;32.00;49.80;;;;;;4953357;29;20106;-73
2021/06/10 11:58:37;;;;;;;1.35;0.70;;;32.00;49.50;;;;;;4953267;29;20151;-72
2021/06/10 12:01:14;;;;;;;0.38;0.38;;;32.00;49.60;;;;;;4952909;29;20477;-71
2021/06/10 12:03:41;;;;;;;0.70;0.70;;;31.80;49.70;;;;;;4953858;28;20114;-72
2021/06/10 12:06:11;;;;;;;0.60;0.60;;;31.70;49.80;;;;;;4995447;28;20030;-72
2021/06/10 12:08:38;;;;;;;1.10;1.00;;;31.50;49.80;;;;;;5013404;28;20030;-72
2021/06/10 12:11:09;;;;;;;1.02;0.93;;;31.20;50.10;;;;;;5013426;28;20029;-72
2021/06/10 12:13:40;;;;;;;0.70;0.70;;;31.00;50.30;;;;;;5013667;28;20057;-72
2021/06/10 12:16:09;;;;;;;0.60;0.60;;;31.00;50.20;;;;;;5012975;28;20049;-71
2021/06/10 12:18:36;;;;;;;0.77;0.77;;;31.00;50.30;;;;;;5013438;28;20597;-71
2021/06/10 12:21:04;;;;;;;0.90;0.80;;;31.00;50.10;;;;;;5013204;28;20064;-71
2021/06/10 12:23:37;;;;;;;0.80;0.80;;;30.90;50.30;;;;;;5013431;28;20022;-73
2021/06/10 12:26:08;;;;;;;0.80;0.80;;;31.00;50.00;;;;;;5013453;28;20026;-71
2021/06/10 12:28:41;;;;;;;0.50;0.50;;;31.20;49.90;;;;;;5013214;28;20072;-72
2021/06/10 12:31:24;;;;;;;0.50;0.50;;;31.40;49.90;;;;;;4995228;28;20104;-72
2021/06/10 12:34:02;;;;;;;0.80;0.80;;;31.70;49.50;;;;;;5013263;28;20490;-72
2021/06/10 12:36:30;;;;;;;0.70;0.70;;;31.90;49.10;;;;;;5013307;28;20026;-71
2021/06/10 12:39:00;;;;;;;0.75;0.75;;;32.10;49.00;;;;;;5013131;28;20030;-72
2021/06/10 12:41:34;;;;;;;0.55;0.55;;;32.40;48.50;;;;;;5016170;28;20112;-75
2021/06/10 12:44:10;;;;;;;0.60;0.60;;;32.80;48.10;;;;;;5016901;28;20022;-72
2021/06/10 12:46:49;;;;;;;0.40;0.40;;;33.00;47.90;;;;;;5017275;28;20022;-73
2021/06/10 12:49:15;;;;;;;;;;;33.20;47.80;;;;;;5017365;28;20498;-73
2021/06/10 12:51:44;;;;;;;0.20;0.20;;;33.30;48.00;;;;;;5017082;28;19906;-74
2021/06/10 12:54:13;;;;;;;0.60;0.60;;;33.40;47.70;;;;;;5017077;28;20022;-74